Time;durP1;ratioP1;P1;durP2;ratioP2;P2;SDS_P1;SDS_P2;PMS_P1;PMS_P2;Temp;Humidity;BMP_temperature;BMP_pressure;BME280_temperature;BME280_humidity;BME280_pressure;Samples;Min_cycle;Max_cycle;Signal;HPM_P1;HPM_P2
2022/01/06 00:01:42;;;;;;;0.40;0.40;;;3.20;99.90;;;;;;5088773;28;20210;-80
2022/01/06 00:04:08;;;;;;;0.40;0.40;;;3.20;99.90;;;;;;5089230;28;20222;-80
2022/01/06 00:06:39;;;;;;;0.40;0.40;;;3.20;99.90;;;;;;5089745;28;20178;-79
2022/01/06 00:09:07;;;;;;;0.40;0.40;;;3.20;99.90;;;;;;5090361;28;20293;-79
2022/01/06 00:11:35;;;;;;;0.40;0.30;;;3.20;99.90;;;;;;5089274;28;20225;-80
2022/01/06 00:14:08;;;;;;;0.50;0.40;;;3.10;99.90;;;;;;5081811;28;20313;-81
2022/01/06 00:16:41;;;;;;;0.40;0.40;;;3.20;99.90;;;;;;5078405;28;20264;-80
2022/01/06 00:24:36;;;;;;;0.40;0.35;;;3.00;99.90;;;;;;5076841;28;20740;-81
2022/01/06 00:27:04;;;;;;;0.40;0.40;;;3.10;99.90;;;;;;5076644;28;20221;-81
2022/01/06 00:29:31;;;;;;;0.40;0.38;;;3.10;99.90;;;;;;5076439;28;20205;-81
2022/01/06 00:31:58;;;;;;;0.40;0.40;;;3.20;99.90;;;;;;5076407;28;20194;-81
2022/01/06 00:34:24;;;;;;;0.40;0.40;;;3.20;99.90;;;;;;5076690;28;20229;-82
2022/01/06 00:36:51;;;;;;;0.80;0.50;;;3.20;99.90;;;;;;5077078;28;20194;-81
2022/01/06 00:39:18;;;;;;;1.95;1.15;;;3.20;99.90;;;;;;5076089;28;20190;-81
2022/01/06 00:41:45;;;;;;;0.40;0.40;;;3.30;99.90;;;;;;5076422;28;20622;-79
2022/01/06 00:44:14;;;;;;;0.43;0.40;;;3.30;99.90;;;;;;5076197;28;20859;-81
2022/01/06 00:46:41;;;;;;;0.40;0.35;;;3.30;99.90;;;;;;5076515;28;20239;-81
2022/01/06 00:49:07;;;;;;;0.40;0.40;;;3.20;99.90;;;;;;5075575;28;20213;-78
2022/01/06 00:51:34;;;;;;;0.40;0.40;;;3.20;99.90;;;;;;5075590;28;20237;-81
2022/01/06 00:54:01;;;;;;;0.40;0.40;;;3.10;99.90;;;;;;5076156;28;20226;-81
2022/01/06 00:56:28;;;;;;;0.40;0.40;;;3.10;99.90;;;;;;5076341;28;20194;-78
2022/01/06 00:58:54;;;;;;;0.40;0.40;;;3.00;99.90;;;;;;5076437;28;20619;-81
2022/01/06 01:01:23;;;;;;;0.40;0.40;;;3.00;99.90;;;;;;5076372;28;20194;-82
2022/01/06 01:03:49;;;;;;;0.50;0.50;;;2.90;99.90;;;;;;5075754;28;20277;-81
2022/01/06 01:06:16;;;;;;;1.85;1.02;;;2.90;99.90;;;;;;5075588;28;20559;-82
2022/01/06 01:08:43;;;;;;;0.40;0.40;;;2.80;99.90;;;;;;5076052;28;20563;-81
2022/01/06 01:11:10;;;;;;;1.60;0.85;;;2.80;99.90;;;;;;5075424;28;20528;-81
2022/01/06 01:13:53;;;;;;;0.70;0.70;;;2.80;99.90;;;;;;5076370;28;20216;-80
2022/01/06 01:16:25;;;;;;;0.40;0.40;;;2.80;99.90;;;;;;5075415;28;20675;-80
2022/01/06 01:18:52;;;;;;;5.07;0.70;;;2.70;99.90;;;;;;5075442;28;20529;-81
2022/01/06 01:21:20;;;;;;;0.60;0.60;;;2.70;99.90;;;;;;5075428;28;20191;-81
2022/01/06 01:23:47;;;;;;;0.47;0.40;;;2.70;99.90;;;;;;5076012;28;20190;-78
2022/01/06 01:26:14;;;;;;;0.93;0.88;;;2.70;99.90;;;;;;5075147;28;20198;-81
2022/01/06 01:28:45;;;;;;;0.40;0.40;;;2.70;99.90;;;;;;5076246;28;20564;-81
2022/01/06 01:31:24;;;;;;;0.40;0.40;;;2.70;99.90;;;;;;5074805;28;20202;-81
2022/01/06 01:33:53;;;;;;;0.40;0.38;;;2.70;99.90;;;;;;5075482;28;20197;-80
2022/01/06 01:36:21;;;;;;;0.40;0.40;;;2.70;99.90;;;;;;5076039;28;20194;-81
2022/01/06 01:38:48;;;;;;;0.40;0.32;;;2.70;99.90;;;;;;5074867;28;20529;-77
2022/01/06 01:41:15;;;;;;;0.40;0.30;;;2.70;99.90;;;;;;5075334;28;20808;-81
2022/01/06 01:43:42;;;;;;;0.40;0.40;;;2.60;99.90;;;;;;5074822;28;20205;-80
2022/01/06 01:46:13;;;;;;;1.17;0.82;;;2.70;99.90;;;;;;5075915;28;20578;-81
2022/01/06 01:48:44;;;;;;;0.40;0.40;;;2.70;99.90;;;;;;5075621;28;20186;-81
2022/01/06 01:51:13;;;;;;;0.40;0.40;;;2.80;99.90;;;;;;5075703;28;20261;-81
2022/01/06 01:53:40;;;;;;;0.40;0.40;;;2.90;99.90;;;;;;5076002;28;20194;-79
2022/01/06 01:56:07;;;;;;;0.40;0.30;;;2.90;99.90;;;;;;5074758;28;20579;-80
2022/01/06 01:58:35;;;;;;;2.33;2.22;;;2.90;99.90;;;;;;5075314;28;20202;-81
2022/01/06 02:01:02;;;;;;;2.35;1.27;;;2.90;99.90;;;;;;5075092;28;20197;-80
2022/01/06 02:03:28;;;;;;;0.40;0.40;;;3.00;99.90;;;;;;5075357;28;20198;-81
2022/01/06 02:05:55;;;;;;;0.50;0.50;;;3.00;99.90;;;;;;5074999;28;20226;-81
2022/01/06 02:08:23;;;;;;;0.40;0.40;;;3.00;99.90;;;;;;5075184;28;20194;-80
2022/01/06 02:10:50;;;;;;;0.40;0.40;;;3.10;99.90;;;;;;5074811;28;20198;-80
2022/01/06 02:13:17;;;;;;;0.40;0.40;;;3.10;99.90;;;;;;5074974;28;20198;-80
2022/01/06 02:15:43;;;;;;;0.40;0.40;;;3.10;99.90;;;;;;5075663;28;20221;-80
2022/01/06 02:18:10;;;;;;;0.40;0.40;;;3.10;99.90;;;;;;5075445;28;20224;-80
2022/01/06 02:20:38;;;;;;;0.40;0.40;;;3.10;99.90;;;;;;5074176;28;20198;-80
2022/01/06 02:23:05;;;;;;;0.40;0.40;;;3.20;99.90;;;;;;5074657;28;20195;-80
2022/01/06 02:25:33;;;;;;;0.50;0.40;;;3.20;99.90;;;;;;5075436;28;20760;-80
2022/01/06 02:28:02;;;;;;;0.73;0.73;;;3.10;99.90;;;;;;5075049;28;20198;-80
2022/01/06 02:30:31;;;;;;;0.40;0.40;;;3.10;99.90;;;;;;5074516;28;20198;-80
2022/01/06 02:33:00;;;;;;;0.40;0.40;;;3.10;99.90;;;;;;5075226;28;20598;-78
2022/01/06 02:35:28;;;;;;;0.40;0.30;;;3.10;99.90;;;;;;5074645;28;20222;-80
2022/01/06 02:37:56;;;;;;;0.40;0.40;;;3.10;99.90;;;;;;5076770;28;20198;-80
2022/01/06 02:40:25;;;;;;;0.40;0.40;;;3.00;99.90;;;;;;5078361;28;20198;-80
2022/01/06 02:42:55;;;;;;;1.55;0.70;;;3.00;99.90;;;;;;5078311;28;20229;-80
2022/01/06 02:45:25;;;;;;;0.50;0.50;;;3.00;99.90;;;;;;5079084;28;20249;-79
2022/01/06 02:47:52;;;;;;;0.40;0.40;;;3.00;99.90;;;;;;5078279;28;20205;-79
2022/01/06 02:50:19;;;;;;;0.40;0.40;;;3.10;99.90;;;;;;5077892;28;20205;-79
2022/01/06 02:52:46;;;;;;;0.40;0.40;;;3.20;99.90;;;;;;5078709;28;20194;-80
2022/01/06 02:55:15;;;;;;;0.40;0.40;;;3.20;99.90;;;;;;5078398;28;20236;-80
2022/01/06 02:57:43;;;;;;;0.40;0.30;;;3.10;99.90;;;;;;5078525;28;20659;-80
2022/01/06 03:00:11;;;;;;;0.40;0.40;;;3.10;99.90;;;;;;5077945;28;20202;-79
2022/01/06 03:02:38;;;;;;;0.40;0.40;;;3.10;99.90;;;;;;5078345;28;20194;-79
2022/01/06 03:05:06;;;;;;;0.40;0.40;;;3.10;99.90;;;;;;5078534;28;20218;-80
2022/01/06 03:07:33;;;;;;;1.30;1.20;;;3.10;99.90;;;;;;5078183;28;20198;-79
2022/01/06 03:10:03;;;;;;;0.40;0.40;;;3.10;99.90;;;;;;5078286;28;20206;-81
2022/01/06 03:12:39;;;;;;;14.07;5.25;;;3.20;99.90;;;;;;5077418;28;20203;-81
2022/01/06 03:15:07;;;;;;;0.40;0.40;;;3.20;99.90;;;;;;5077771;28;20221;-81
2022/01/06 03:17:33;;;;;;;5.00;1.48;;;3.20;99.90;;;;;;5077909;28;20714;-80
2022/01/06 03:20:00;;;;;;;0.40;0.40;;;3.10;99.90;;;;;;5078603;28;20201;-79
2022/01/06 03:22:27;;;;;;;0.95;0.75;;;3.10;99.90;;;;;;5077968;28;20205;-80
2022/01/06 03:24:53;;;;;;;1.67;1.65;;;3.00;99.90;;;;;;5078594;28;20214;-81
2022/01/06 03:27:20;;;;;;;1.33;1.23;;;3.00;99.90;;;;;;5078113;28;20574;-81
2022/01/06 03:29:50;;;;;;;0.40;0.40;;;2.90;99.90;;;;;;5077400;28;20721;-80
2022/01/06 03:32:16;;;;;;;0.40;0.40;;;2.90;99.90;;;;;;5077950;28;20695;-81
2022/01/06 03:34:43;;;;;;;0.40;0.40;;;2.90;99.90;;;;;;5078027;28;20225;-81
2022/01/06 03:37:10;;;;;;;0.40;0.30;;;2.80;99.90;;;;;;5077923;28;20198;-81
2022/01/06 03:39:37;;;;;;;0.80;0.50;;;2.80;99.90;;;;;;5077041;28;20198;-81
2022/01/06 03:42:04;;;;;;;1.60;0.60;;;2.70;99.90;;;;;;5077596;28;20204;-80
2022/01/06 03:44:31;;;;;;;1.50;0.65;;;2.70;99.90;;;;;;5077973;28;20211;-81
2022/01/06 03:46:59;;;;;;;0.40;0.40;;;2.60;99.90;;;;;;5077838;28;20209;-80
2022/01/06 03:49:26;;;;;;;0.73;0.73;;;2.60;99.90;;;;;;5076223;28;20200;-81
2022/01/06 03:51:52;;;;;;;2.05;2.05;;;2.50;99.90;;;;;;5077070;28;20202;-81
2022/01/06 03:54:20;;;;;;;0.40;0.40;;;2.40;99.90;;;;;;5077029;28;20225;-81
2022/01/06 03:56:48;;;;;;;0.40;0.40;;;2.40;99.90;;;;;;5077783;28;20205;-81
2022/01/06 03:59:15;;;;;;;0.40;0.40;;;2.40;99.90;;;;;;5076449;28;20247;-80
2022/01/06 04:01:42;;;;;;;0.40;0.40;;;2.40;99.90;;;;;;5077190;28;20198;-78
2022/01/06 04:04:10;;;;;;;0.52;0.52;;;2.40;99.90;;;;;;5076879;28;20245;-81
2022/01/06 04:06:37;;;;;;;0.40;0.40;;;2.40;99.90;;;;;;5078775;28;20227;-79
2022/01/06 04:09:04;;;;;;;0.60;0.60;;;2.40;99.90;;;;;;5076776;28;20197;-80
2022/01/06 04:11:31;;;;;;;0.40;0.40;;;2.30;99.90;;;;;;5076633;28;20198;-80
2022/01/06 04:13:58;;;;;;;0.40;0.40;;;2.30;99.90;;;;;;5077276;28;20198;-80
2022/01/06 04:16:26;;;;;;;0.40;0.40;;;2.30;99.90;;;;;;5077442;28;20218;-80
2022/01/06 04:18:53;;;;;;;0.40;0.40;;;2.30;99.90;;;;;;5076802;28;20199;-80
2022/01/06 04:21:21;;;;;;;2.65;0.88;;;2.30;99.90;;;;;;5076260;28;20198;-80
2022/01/06 04:23:48;;;;;;;0.40;0.40;;;2.20;99.90;;;;;;5076536;28;20217;-81
2022/01/06 04:26:15;;;;;;;0.40;0.40;;;2.30;99.90;;;;;;5076809;28;20666;-81
2022/01/06 04:28:42;;;;;;;0.40;0.40;;;2.20;99.90;;;;;;5077698;28;20201;-81
2022/01/06 04:31:09;;;;;;;0.50;0.50;;;2.20;99.90;;;;;;5077022;28;20288;-80
2022/01/06 04:33:36;;;;;;;0.40;0.40;;;2.20;99.90;;;;;;5077428;28;20202;-79
2022/01/06 04:36:04;;;;;;;0.40;0.40;;;2.10;99.90;;;;;;5077602;28;20221;-78
2022/01/06 04:38:33;;;;;;;1.08;1.02;;;2.20;99.90;;;;;;5077337;28;20599;-79
2022/01/06 04:41:00;;;;;;;0.40;0.40;;;2.10;99.90;;;;;;5076788;28;20198;-80
2022/01/06 04:43:27;;;;;;;0.40;0.40;;;2.10;99.90;;;;;;5077159;28;20201;-80
2022/01/06 04:45:53;;;;;;;0.40;0.40;;;2.10;99.90;;;;;;5076695;28;20218;-80
2022/01/06 04:48:20;;;;;;;0.40;0.40;;;2.10;99.90;;;;;;5077048;28;20220;-80
2022/01/06 04:50:47;;;;;;;0.40;0.40;;;2.00;99.90;;;;;;5075630;28;20202;-80
2022/01/06 04:53:14;;;;;;;0.68;0.68;;;2.00;99.90;;;;;;5075884;28;20205;-80
2022/01/06 04:55:42;;;;;;;0.40;0.40;;;2.10;99.90;;;;;;5075956;28;20213;-81
2022/01/06 04:58:09;;;;;;;0.40;0.40;;;2.00;99.90;;;;;;5075658;28;20194;-80
2022/01/06 05:00:36;;;;;;;0.40;0.40;;;1.90;99.90;;;;;;5074992;28;20201;-80
2022/01/06 05:03:02;;;;;;;0.40;0.40;;;1.90;99.90;;;;;;5076233;28;20206;-79
2022/01/06 05:05:29;;;;;;;0.40;0.40;;;1.90;99.90;;;;;;5075319;28;20229;-79
2022/01/06 05:07:56;;;;;;;1.55;1.45;;;1.90;99.90;;;;;;5076419;28;20212;-80
2022/01/06 05:10:23;;;;;;;0.50;0.50;;;1.90;99.90;;;;;;5074286;28;20198;-80
2022/01/06 05:12:51;;;;;;;0.40;0.40;;;1.90;99.90;;;;;;5076058;28;20667;-79
2022/01/06 05:15:18;;;;;;;0.40;0.40;;;1.90;99.90;;;;;;5075611;28;20217;-81
2022/01/06 05:17:44;;;;;;;0.40;0.30;;;1.90;99.90;;;;;;5076519;28;20194;-79
2022/01/06 05:20:12;;;;;;;0.60;0.60;;;1.80;99.90;;;;;;5073807;28;20200;-81
2022/01/06 05:22:44;;;;;;;0.40;0.40;;;1.80;99.90;;;;;;5075276;28;20190;-81
2022/01/06 05:25:11;;;;;;;0.50;0.40;;;1.80;99.90;;;;;;5075243;28;20221;-81
2022/01/06 05:27:38;;;;;;;0.40;0.40;;;1.80;99.90;;;;;;5075368;28;20286;-81
2022/01/06 05:30:08;;;;;;;0.40;0.40;;;1.70;99.90;;;;;;5074835;28;20190;-79
2022/01/06 05:32:35;;;;;;;0.40;0.40;;;1.60;99.90;;;;;;5074947;28;20202;-79
2022/01/06 05:35:01;;;;;;;0.40;0.40;;;1.60;99.90;;;;;;5075767;28;20214;-79
2022/01/06 05:37:28;;;;;;;0.60;0.60;;;1.60;99.90;;;;;;5074606;28;20201;-79
2022/01/06 05:39:55;;;;;;;0.40;0.40;;;1.70;99.90;;;;;;5073915;28;20212;-78
2022/01/06 05:42:22;;;;;;;0.40;0.38;;;1.70;99.90;;;;;;5073900;28;20190;-79
2022/01/06 05:44:49;;;;;;;0.40;0.40;;;1.60;99.90;;;;;;5074403;28;20221;-79
2022/01/06 05:47:17;;;;;;;0.40;0.40;;;1.60;99.90;;;;;;5074850;28;20205;-78
2022/01/06 05:49:44;;;;;;;0.80;0.80;;;1.60;99.90;;;;;;5073786;28;20201;-79
2022/01/06 05:52:11;;;;;;;3.80;2.58;;;1.60;99.90;;;;;;5074708;28;20220;-80
2022/01/06 05:54:39;;;;;;;2.78;2.25;;;1.60;99.90;;;;;;5074686;28;20694;-79
2022/01/06 05:57:06;;;;;;;0.40;0.40;;;1.70;99.90;;;;;;5074448;28;20399;-79
2022/01/06 05:59:33;;;;;;;0.40;0.40;;;1.60;99.90;;;;;;5074354;28;20207;-81
2022/01/06 06:02:00;;;;;;;2.65;2.45;;;1.60;99.90;;;;;;5073931;28;20196;-78
2022/01/06 06:04:28;;;;;;;0.40;0.40;;;1.60;99.90;;;;;;5074103;28;20233;-78
2022/01/06 06:06:55;;;;;;;0.40;0.40;;;1.70;99.90;;;;;;5074031;28;20249;-80
2022/01/06 06:09:21;;;;;;;0.40;0.40;;;1.60;99.90;;;;;;5073997;28;20208;-80
2022/01/06 06:11:48;;;;;;;0.40;0.40;;;1.60;99.90;;;;;;5073965;28;20202;-80
2022/01/06 06:14:15;;;;;;;0.40;0.30;;;1.50;99.90;;;;;;5078906;28;20214;-78
2022/01/06 06:16:42;;;;;;;0.40;0.40;;;1.50;99.90;;;;;;5078779;28;20226;-81
2022/01/06 06:19:08;;;;;;;0.40;0.40;;;1.50;99.90;;;;;;5078480;28;20197;-78
2022/01/06 06:21:36;;;;;;;0.40;0.40;;;1.50;99.90;;;;;;5078997;28;20198;-79
2022/01/06 06:24:04;;;;;;;0.40;0.40;;;1.40;99.90;;;;;;5078430;28;20209;-79
2022/01/06 06:26:30;;;;;;;0.40;0.40;;;1.40;99.90;;;;;;5078038;28;20204;-79
2022/01/06 06:28:57;;;;;;;1.25;1.25;;;1.40;99.90;;;;;;5077865;28;20636;-77
2022/01/06 06:31:24;;;;;;;0.40;0.40;;;1.50;99.90;;;;;;5077891;28;20197;-79
2022/01/06 06:33:50;;;;;;;0.40;0.40;;;1.50;99.90;;;;;;5078735;28;20206;-78
2022/01/06 06:36:17;;;;;;;0.40;0.40;;;1.40;99.90;;;;;;5078338;28;20221;-78
2022/01/06 06:38:45;;;;;;;0.40;0.40;;;1.40;99.90;;;;;;5079051;28;20567;-78
2022/01/06 06:41:12;;;;;;;0.40;0.40;;;1.40;99.90;;;;;;5079240;28;20217;-79
2022/01/06 06:43:39;;;;;;;0.40;0.40;;;1.50;99.90;;;;;;5078168;28;20691;-78
2022/01/06 06:46:06;;;;;;;0.40;0.40;;;1.40;99.90;;;;;;5077234;28;20752;-77
2022/01/06 06:48:32;;;;;;;0.40;0.40;;;1.40;99.90;;;;;;5077738;28;20190;-80
2022/01/06 06:51:01;;;;;;;0.40;0.35;;;1.40;99.90;;;;;;5077018;28;20201;-78
2022/01/06 06:53:28;;;;;;;1.15;0.77;;;1.40;99.90;;;;;;5077973;28;20297;-79
2022/01/06 06:55:56;;;;;;;0.40;0.30;;;1.50;99.90;;;;;;5078005;28;20214;-79
2022/01/06 06:58:22;;;;;;;0.40;0.40;;;1.50;99.90;;;;;;5076121;28;20200;-77
2022/01/06 07:00:49;;;;;;;0.40;0.40;;;1.60;99.90;;;;;;5076917;28;20603;-78
2022/01/06 07:03:16;;;;;;;0.40;0.40;;;1.60;99.90;;;;;;5076481;28;20197;-79
2022/01/06 07:05:43;;;;;;;0.40;0.40;;;1.60;99.90;;;;;;5077089;28;20285;-80
2022/01/06 07:08:10;;;;;;;0.70;0.70;;;1.60;99.90;;;;;;5077129;28;20197;-80
2022/01/06 07:10:36;;;;;;;1.15;1.05;;;1.60;99.90;;;;;;5077434;28;20209;-77
2022/01/06 07:13:05;;;;;;;0.40;0.40;;;1.70;99.90;;;;;;5077303;28;20225;-80
2022/01/06 07:15:33;;;;;;;0.40;0.40;;;1.70;99.90;;;;;;5077742;28;20222;-80
2022/01/06 07:18:00;;;;;;;0.40;0.40;;;1.70;99.90;;;;;;5077276;28;20194;-81
2022/01/06 07:20:26;;;;;;;0.40;0.40;;;1.70;99.90;;;;;;5077041;28;20209;-81
2022/01/06 07:22:53;;;;;;;0.40;0.40;;;1.70;99.90;;;;;;5077439;28;20197;-81
2022/01/06 07:25:21;;;;;;;4.32;1.30;;;1.70;99.90;;;;;;5076328;28;20726;-80
2022/01/06 07:27:48;;;;;;;0.40;0.40;;;1.70;99.90;;;;;;5076748;28;20544;-79
2022/01/06 07:30:16;;;;;;;0.40;0.40;;;1.80;99.90;;;;;;5076676;28;20567;-79
2022/01/06 07:32:44;;;;;;;0.40;0.40;;;1.80;99.90;;;;;;5077429;28;20202;-81
2022/01/06 07:35:11;;;;;;;0.40;0.30;;;1.80;99.90;;;;;;5076797;28;20214;-80
2022/01/06 07:37:37;;;;;;;0.40;0.35;;;1.80;99.90;;;;;;5076323;28;20222;-80
2022/01/06 07:40:06;;;;;;;0.40;0.40;;;1.80;99.90;;;;;;5076055;28;20194;-80
2022/01/06 07:42:33;;;;;;;0.40;0.40;;;1.80;99.90;;;;;;5057968;28;20194;-81
2022/01/06 07:45:00;;;;;;;1.70;1.60;;;1.70;99.90;;;;;;5075779;28;20233;-80
2022/01/06 07:47:30;;;;;;;0.40;0.40;;;1.70;99.90;;;;;;5075980;28;20211;-80
2022/01/06 07:49:57;;;;;;;0.40;0.40;;;1.70;99.90;;;;;;5076136;28;20212;-81
2022/01/06 07:52:24;;;;;;;0.40;0.40;;;1.60;99.90;;;;;;5076636;28;20221;-78
2022/01/06 07:54:51;;;;;;;0.40;0.40;;;1.70;99.90;;;;;;5076483;28;20218;-80
2022/01/06 07:57:18;;;;;;;0.40;0.40;;;1.60;99.90;;;;;;5075510;28;20221;-81
2022/01/06 07:59:44;;;;;;;0.40;0.40;;;1.60;99.90;;;;;;5075773;28;20194;-78
2022/01/06 08:02:11;;;;;;;0.40;0.40;;;1.50;99.90;;;;;;5076074;28;20272;-80
2022/01/06 08:04:39;;;;;;;1.02;1.02;;;1.60;99.90;;;;;;5075457;28;20222;-80
2022/01/06 08:07:06;;;;;;;0.40;0.40;;;1.60;99.90;;;;;;5075517;28;20189;-81
2022/01/06 08:09:33;;;;;;;0.40;0.40;;;1.70;99.90;;;;;;5075240;28;20255;-81
2022/01/06 08:12:00;;;;;;;0.40;0.40;;;1.70;99.90;;;;;;5075614;28;20201;-81
2022/01/06 08:14:26;;;;;;;0.40;0.40;;;1.70;99.90;;;;;;5075689;28;20217;-81
2022/01/06 08:16:53;;;;;;;0.50;0.50;;;1.80;99.90;;;;;;5075449;28;20222;-80
2022/01/06 08:19:20;;;;;;;0.40;0.30;;;1.90;99.90;;;;;;5075332;28;20252;-80
2022/01/06 08:21:48;;;;;;;0.40;0.40;;;2.00;99.90;;;;;;5075047;28;20241;-80
2022/01/06 08:24:15;;;;;;;0.40;0.40;;;2.10;99.90;;;;;;5075436;28;20214;-80
2022/01/06 08:26:41;;;;;;;0.40;0.30;;;2.10;99.90;;;;;;5075027;28;20202;-81
2022/01/06 08:29:08;;;;;;;0.40;0.40;;;2.10;99.90;;;;;;5074905;28;20194;-80
2022/01/06 08:31:35;;;;;;;0.40;0.40;;;2.30;99.90;;;;;;5075077;28;20198;-81
2022/01/06 08:34:02;;;;;;;0.40;0.40;;;2.50;99.90;;;;;;5067211;28;20201;-80
2022/01/06 08:36:28;;;;;;;0.40;0.40;;;2.70;99.90;;;;;;5069860;28;20205;-80
2022/01/06 08:38:56;;;;;;;0.40;0.40;;;2.90;99.90;;;;;;5057094;28;20653;-78
2022/01/06 08:41:23;;;;;;;0.40;0.30;;;3.10;99.90;;;;;;5058508;28;20205;-81
2022/01/06 08:43:50;;;;;;;0.40;0.30;;;3.10;99.90;;;;;;5065716;28;20209;-80
2022/01/06 08:46:17;;;;;;;0.40;0.30;;;3.20;99.90;;;;;;5054159;28;20195;-81
2022/01/06 08:48:43;;;;;;;0.50;0.40;;;3.20;99.90;;;;;;5054608;28;20235;-82
2022/01/06 08:51:10;;;;;;;0.40;0.40;;;3.30;99.90;;;;;;5054714;28;20680;-81
2022/01/06 08:53:37;;;;;;;0.40;0.40;;;3.40;99.90;;;;;;5069109;28;20195;-81
2022/01/06 08:56:05;;;;;;;0.40;0.40;;;3.50;99.90;;;;;;5053646;28;20696;-81
2022/01/06 08:58:32;;;;;;;0.40;0.40;;;3.60;99.90;;;;;;5054070;28;20198;-82
2022/01/06 09:00:58;;;;;;;0.52;0.52;;;3.90;99.90;;;;;;5053608;28;20273;-78
2022/01/06 09:03:25;;;;;;;1.40;1.02;;;4.20;99.90;;;;;;5053370;28;20195;-82
2022/01/06 09:05:52;;;;;;;0.40;0.30;;;4.40;99.90;;;;;;5053800;28;20226;-82
2022/01/06 09:08:19;;;;;;;0.80;0.77;;;4.50;99.90;;;;;;5053675;28;20202;-82
2022/01/06 09:10:45;;;;;;;0.50;0.40;;;4.80;99.90;;;;;;5053816;28;20292;-82
2022/01/06 09:13:13;;;;;;;0.50;0.40;;;5.30;99.90;;;;;;5070451;28;20208;-82
2022/01/06 09:15:40;;;;;;;0.50;0.40;;;5.90;99.90;;;;;;5053908;28;20231;-82
2022/01/06 09:18:07;;;;;;;0.50;0.30;;;6.20;99.90;;;;;;5053919;28;20529;-82
2022/01/06 09:20:34;;;;;;;1.67;1.58;;;6.20;99.90;;;;;;5053333;28;20222;-83
2022/01/06 09:23:02;;;;;;;0.50;0.40;;;6.00;99.90;;;;;;5054823;28;20940;-81
2022/01/06 09:25:28;;;;;;;0.63;0.60;;;5.80;99.90;;;;;;5056837;28;20590;-81
2022/01/06 09:27:55;;;;;;;0.50;0.40;;;5.50;99.90;;;;;;5071312;28;20207;-81
2022/01/06 09:30:25;;;;;;;0.50;0.40;;;5.20;99.90;;;;;;5071617;28;20190;-81
2022/01/06 09:32:53;;;;;;;0.50;0.40;;;5.60;99.90;;;;;;5060016;28;20340;-80
2022/01/06 09:35:20;;;;;;;0.47;0.40;;;6.00;99.90;;;;;;5070927;28;20276;-83
2022/01/06 09:37:47;;;;;;;0.68;0.68;;;6.40;99.90;;;;;;5070758;28;20207;-80
2022/01/06 09:40:14;;;;;;;0.50;0.40;;;6.40;99.90;;;;;;5053487;28;20196;-80
2022/01/06 09:42:41;;;;;;;0.50;0.40;;;6.70;99.90;;;;;;5053538;28;20222;-81
2022/01/06 09:45:09;;;;;;;0.80;0.80;;;6.80;99.90;;;;;;5053469;28;20580;-81
2022/01/06 09:47:41;;;;;;;3.25;1.65;;;6.60;99.90;;;;;;5055067;28;20572;-81
2022/01/06 09:50:10;;;;;;;3.20;1.98;;;6.20;99.90;;;;;;5067642;28;20199;-81
2022/01/06 09:52:37;;;;;;;0.50;0.40;;;5.70;99.90;;;;;;5054535;28;20200;-81
2022/01/06 09:55:04;;;;;;;13.60;2.65;;;5.60;99.90;;;;;;5068146;28;20215;-81
2022/01/06 09:57:31;;;;;;;1.13;1.13;;;5.50;99.90;;;;;;5055778;28;20275;-82
2022/01/06 09:59:58;;;;;;;0.50;0.40;;;5.50;99.90;;;;;;5054132;28;20198;-78
2022/01/06 10:02:33;;;;;;;0.50;0.40;;;5.60;99.90;;;;;;5053725;28;20674;-81
2022/01/06 10:05:02;;;;;;;1.45;1.45;;;5.60;99.90;;;;;;5053722;28;20240;-81
2022/01/06 10:07:36;;;;;;;0.50;0.40;;;5.70;99.90;;;;;;5054306;28;20201;-81
2022/01/06 10:10:06;;;;;;;0.50;0.50;;;5.90;99.90;;;;;;5057901;28;20202;-81
2022/01/06 10:12:33;;;;;;;1.13;1.02;;;6.10;99.90;;;;;;5073991;28;20202;-82
2022/01/06 10:15:00;;;;;;;0.60;0.60;;;6.30;99.90;;;;;;5076534;28;20254;-79
2022/01/06 10:17:33;;;;;;;0.50;0.40;;;6.20;99.90;;;;;;5063280;28;20714;-82
2022/01/06 10:20:11;;;;;;;1.70;1.30;;;6.10;99.90;;;;;;5055294;28;20201;-82
2022/01/06 10:22:46;;;;;;;0.50;0.50;;;6.00;99.90;;;;;;5054983;28;20199;-82
2022/01/06 10:25:13;;;;;;;0.77;0.77;;;6.00;99.90;;;;;;5054920;28;20878;-82
2022/01/06 10:27:42;;;;;;;0.90;0.90;;;5.90;99.90;;;;;;5054592;28;20192;-82
2022/01/06 10:30:10;;;;;;;0.50;0.40;;;5.90;99.90;;;;;;5055987;28;20191;-81
2022/01/06 10:32:38;;;;;;;0.70;0.70;;;6.00;99.90;;;;;;5053886;28;20200;-82
2022/01/06 10:35:06;;;;;;;1.80;0.85;;;6.00;99.90;;;;;;5054291;28;20302;-82
2022/01/06 10:37:38;;;;;;;1.02;0.98;;;6.20;99.90;;;;;;5054196;28;20210;-82
2022/01/06 10:40:08;;;;;;;1.88;1.02;;;6.50;99.90;;;;;;5070888;28;20254;-82
2022/01/06 10:42:37;;;;;;;0.50;0.50;;;6.40;99.90;;;;;;5054157;28;20192;-81
2022/01/06 10:45:09;;;;;;;2.15;1.48;;;6.40;99.90;;;;;;5053493;28;20226;-82
2022/01/06 10:47:39;;;;;;;2.47;1.98;;;6.50;99.90;;;;;;5054362;28;20607;-82
2022/01/06 10:50:11;;;;;;;0.50;0.40;;;6.90;99.90;;;;;;5060759;28;20203;-81
2022/01/06 10:52:41;;;;;;;1.50;1.40;;;6.80;99.90;;;;;;5055067;28;20217;-82
2022/01/06 10:55:13;;;;;;;0.50;0.40;;;7.00;99.90;;;;;;5075618;22;20367;-82
2022/01/06 10:57:54;;;;;;;0.50;0.40;;;7.20;99.90;;;;;;5081018;28;20218;-80
2022/01/06 11:00:23;;;;;;;1.25;1.15;;;7.50;99.90;;;;;;5088710;28;20649;-79
2022/01/06 11:02:50;;;;;;;0.98;0.98;;;7.40;99.90;;;;;;5075859;28;20197;-76
2022/01/06 11:05:17;;;;;;;3.45;1.95;;;7.20;99.90;;;;;;5080119;28;20215;-81
2022/01/06 11:07:45;;;;;;;0.52;0.50;;;6.70;99.90;;;;;;5076596;28;20191;-80
2022/01/06 11:10:19;;;;;;;0.80;0.75;;;6.60;99.90;;;;;;5092807;28;20201;-80
2022/01/06 11:12:46;;;;;;;0.50;0.50;;;6.50;99.90;;;;;;5079516;28;20187;-80
2022/01/06 11:15:13;;;;;;;7.90;2.13;;;6.50;99.90;;;;;;5086898;28;20227;-80
2022/01/06 11:17:41;;;;;;;1.55;1.45;;;6.50;99.90;;;;;;5080973;28;20220;-80
2022/01/06 11:20:09;;;;;;;0.50;0.40;;;6.40;99.90;;;;;;5077434;28;20197;-80
2022/01/06 11:22:37;;;;;;;0.70;0.50;;;6.40;99.90;;;;;;5090726;28;20668;-79
2022/01/06 11:25:06;;;;;;;1.08;0.60;;;6.50;99.90;;;;;;5076909;28;20208;-80
2022/01/06 11:27:35;;;;;;;0.50;0.40;;;6.80;99.90;;;;;;5076043;28;20202;-80
2022/01/06 11:30:10;;;;;;;1.00;0.75;;;6.80;99.90;;;;;;5075000;28;20194;-81
2022/01/06 11:32:38;;;;;;;1.90;0.90;;;6.50;99.90;;;;;;5079147;28;20195;-80
2022/01/06 11:35:08;;;;;;;0.50;0.40;;;6.50;99.90;;;;;;5076599;28;20211;-81
2022/01/06 11:37:43;;;;;;;0.50;0.43;;;6.40;99.90;;;;;;5076525;28;20211;-78
2022/01/06 11:40:13;;;;;;;1.75;1.30;;;6.50;99.90;;;;;;5076311;28;20230;-80
2022/01/06 11:42:40;;;;;;;0.50;0.50;;;6.60;99.90;;;;;;5075731;28;20224;-80
2022/01/06 11:45:08;;;;;;;0.50;0.40;;;6.40;99.90;;;;;;5074482;28;20243;-80
2022/01/06 11:47:40;;;;;;;0.50;0.40;;;6.20;99.90;;;;;;5075648;28;20194;-79
2022/01/06 11:50:13;;;;;;;0.80;0.80;;;6.00;99.90;;;;;;5075647;28;20197;-82
2022/01/06 11:52:53;;;;;;;3.83;1.02;;;6.10;99.90;;;;;;5076108;28;20539;-80
2022/01/06 11:55:22;;;;;;;0.77;0.77;;;6.10;99.90;;;;;;5078999;28;20223;-80
2022/01/06 11:57:49;;;;;;;1.08;0.93;;;6.20;99.90;;;;;;5082732;28;20535;-82
2022/01/06 12:00:22;;;;;;;0.80;0.70;;;6.30;99.90;;;;;;5086250;28;20679;-81
2022/01/06 12:02:59;;;;;;;0.80;0.80;;;6.50;99.90;;;;;;5076251;28;20199;-80
2022/01/06 12:05:27;;;;;;;1.40;1.30;;;6.90;99.90;;;;;;5075477;28;20261;-80
2022/01/06 12:07:55;;;;;;;20.02;5.70;;;7.10;99.90;;;;;;5076273;28;20197;-81
2022/01/06 12:10:23;;;;;;;1.17;0.98;;;7.10;99.90;;;;;;5074384;28;20188;-82
2022/01/06 12:12:51;;;;;;;1.58;0.85;;;7.00;99.90;;;;;;5076105;28;20198;-81
2022/01/06 12:15:20;;;;;;;2.45;1.80;;;6.70;99.90;;;;;;5078605;28;20218;-81
2022/01/06 12:17:49;;;;;;;1.55;1.05;;;6.50;99.90;;;;;;5074895;28;20208;-81
2022/01/06 12:20:21;;;;;;;0.98;0.98;;;6.30;99.90;;;;;;5075175;28;20192;-80
2022/01/06 12:22:48;;;;;;;0.85;0.60;;;6.30;99.90;;;;;;5074688;28;20205;-81
2022/01/06 12:25:15;;;;;;;0.70;0.70;;;6.10;99.90;;;;;;5076013;28;20210;-81
2022/01/06 12:27:48;;;;;;;1.08;1.08;;;5.80;99.90;;;;;;5075440;28;20182;-80
2022/01/06 12:30:17;;;;;;;0.50;0.40;;;5.60;99.90;;;;;;5078747;28;20186;-81
2022/01/06 12:32:54;;;;;;;1.95;1.85;;;5.50;99.90;;;;;;5076613;28;20197;-81
2022/01/06 12:35:21;;;;;;;3.80;1.63;;;5.50;99.90;;;;;;5075375;28;20201;-81
2022/01/06 12:37:58;;;;;;;0.50;0.40;;;5.40;99.90;;;;;;5076054;28;20214;-81
2022/01/06 12:40:33;;;;;;;0.50;0.40;;;5.40;99.90;;;;;;5075402;28;20185;-81
2022/01/06 12:43:13;;;;;;;0.60;0.60;;;5.60;99.90;;;;;;5078900;28;20184;-81
2022/01/06 12:45:40;;;;;;;1.33;1.25;;;5.90;99.90;;;;;;5081166;28;20695;-80
2022/01/06 12:48:06;;;;;;;0.98;0.98;;;6.10;99.90;;;;;;5081078;28;20537;-81
2022/01/06 12:50:43;;;;;;;2.38;1.77;;;6.10;99.90;;;;;;5074106;28;20191;-81
2022/01/06 12:53:10;;;;;;;0.55;0.55;;;6.10;99.90;;;;;;5076846;28;20192;-81
2022/01/06 12:55:43;;;;;;;0.50;0.40;;;5.90;99.90;;;;;;5073775;28;20236;-80
2022/01/06 12:58:11;;;;;;;1.73;1.63;;;5.90;99.90;;;;;;5075224;28;20206;-81
2022/01/06 13:00:37;;;;;;;0.70;0.70;;;6.00;99.90;;;;;;5074111;28;20202;-81
2022/01/06 13:03:05;;;;;;;14.45;2.15;;;6.00;99.90;;;;;;5074449;28;20194;-81
2022/01/06 13:05:35;;;;;;;1.92;1.38;;;6.00;99.90;;;;;;5074383;28;20760;-78
2022/01/06 13:08:03;;;;;;;2.50;2.33;;;5.80;99.90;;;;;;5074101;28;20193;-82